createdAt,value
2023-05-19T00:00:39.236Z,15.97
2023-05-19T00:03:06.450Z,15.99
2023-05-19T00:05:34.552Z,15.99
2023-05-19T00:08:03.105Z,16.07
2023-05-19T00:10:30.588Z,16.07
2023-05-19T00:12:58.700Z,16.06
2023-05-19T00:15:25.796Z,16.06
2023-05-19T00:17:52.676Z,16.10
2023-05-19T00:20:19.459Z,15.92
2023-05-19T00:22:46.369Z,15.98
2023-05-19T00:25:13.141Z,15.93
2023-05-19T00:27:39.890Z,15.84
2023-05-19T00:30:07.507Z,15.83
2023-05-19T00:32:35.284Z,15.80
2023-05-19T00:35:02.251Z,15.70
2023-05-19T00:37:28.968Z,15.69
2023-05-19T00:39:55.627Z,15.61
2023-05-19T00:42:22.215Z,15.68
2023-05-19T00:44:48.933Z,15.78
2023-05-19T00:47:15.816Z,15.80
2023-05-19T00:49:42.518Z,15.82
2023-05-19T00:52:09.310Z,15.87
2023-05-19T00:54:36.566Z,15.86
2023-05-19T00:57:03.513Z,15.93
2023-05-19T00:59:30.338Z,15.88
2023-05-19T01:01:57.639Z,15.79
2023-05-19T01:04:25.739Z,15.73
2023-05-19T01:06:52.563Z,15.86
2023-05-19T01:09:20.611Z,15.91
2023-05-19T01:11:47.386Z,15.62
2023-05-19T01:14:15.497Z,15.81
2023-05-19T01:17:06.916Z,15.86
2023-05-19T01:19:39.693Z,15.93
2023-05-19T01:22:32.241Z,15.93
2023-05-19T01:25:20.019Z,16.01
2023-05-19T01:28:15.095Z,15.99
2023-05-19T01:30:44.233Z,15.91
2023-05-19T01:33:14.033Z,15.85
2023-05-19T01:35:42.901Z,15.87
2023-05-19T01:38:12.586Z,15.81
2023-05-19T01:40:41.270Z,15.84
2023-05-19T01:43:12.177Z,15.85
2023-05-19T01:45:40.586Z,15.76
2023-05-19T01:48:10.822Z,15.80
2023-05-19T01:50:39.129Z,15.69
2023-05-19T01:53:06.240Z,15.66
2023-05-19T01:55:33.953Z,15.56
2023-05-19T01:58:15.598Z,15.52
2023-05-19T02:00:53.060Z,15.37
2023-05-19T02:03:44.766Z,15.37
2023-05-19T02:06:20.746Z,15.30
2023-05-19T02:09:12.163Z,15.29
2023-05-19T02:11:42.728Z,15.08
2023-05-19T02:14:20.159Z,15.06
2023-05-19T02:16:48.620Z,14.91
2023-05-19T02:19:33.740Z,14.85
2023-05-19T02:22:00.650Z,14.75
2023-05-19T02:24:27.458Z,14.70
2023-05-19T02:26:54.834Z,14.72
2023-05-19T02:29:21.703Z,14.77
2023-05-19T02:31:49.002Z,14.86
2023-05-19T02:34:18.646Z,14.94
2023-05-19T02:36:45.410Z,14.95
2023-05-19T02:39:12.997Z,14.99
2023-05-19T02:41:39.878Z,15.09
2023-05-19T02:44:06.653Z,15.10
2023-05-19T02:46:34.176Z,15.22
2023-05-19T02:49:00.980Z,15.21
2023-05-19T02:51:27.941Z,15.23
2023-05-19T02:53:54.872Z,15.31
2023-05-19T02:56:21.807Z,15.36
2023-05-19T02:58:48.803Z,15.40
2023-05-19T03:01:15.589Z,15.41
2023-05-19T03:03:42.293Z,15.30
2023-05-19T03:06:09.076Z,15.33
2023-05-19T03:08:36.360Z,15.15
2023-05-19T03:11:03.784Z,15.20
2023-05-19T03:13:30.458Z,15.21
2023-05-19T03:15:57.239Z,15.24
2023-05-19T03:18:24.182Z,15.25
2023-05-19T03:20:51.088Z,15.15
2023-05-19T03:23:17.680Z,15.26
2023-05-19T03:25:46.572Z,15.26
2023-05-19T03:28:13.425Z,15.35
2023-05-19T03:30:40.261Z,15.39
2023-05-19T03:33:07.002Z,15.29
2023-05-19T03:35:33.757Z,15.37
2023-05-19T03:38:00.588Z,15.07
2023-05-19T03:40:27.683Z,15.19
2023-05-19T03:42:54.271Z,15.20
2023-05-19T03:45:20.902Z,15.28
2023-05-19T03:47:47.701Z,15.33
2023-05-19T03:50:14.409Z,15.31
2023-05-19T03:52:41.227Z,15.23
2023-05-19T03:55:08.992Z,14.86
2023-05-19T03:57:35.824Z,14.93
2023-05-19T04:00:03.924Z,15.08
2023-05-19T04:02:31.077Z,14.99
2023-05-19T04:04:57.972Z,14.95
2023-05-19T04:07:24.823Z,15.19
2023-05-19T04:09:51.574Z,15.21
2023-05-19T04:12:18.638Z,15.28
2023-05-19T04:14:45.501Z,15.34
2023-05-19T04:17:12.501Z,15.35
2023-05-19T04:19:39.323Z,15.43
2023-05-19T04:22:06.222Z,15.26
2023-05-19T04:24:33.174Z,15.43
2023-05-19T04:27:00.220Z,15.43
2023-05-19T04:29:27.067Z,15.36
2023-05-19T04:31:53.906Z,15.40
2023-05-19T04:34:20.732Z,15.34
2023-05-19T04:36:47.709Z,15.26
2023-05-19T04:39:14.668Z,15.24
2023-05-19T04:41:41.292Z,15.25
2023-05-19T04:44:07.895Z,15.29
2023-05-19T04:46:34.736Z,15.22
2023-05-19T04:49:01.507Z,15.22
2023-05-19T04:51:30.438Z,15.19
2023-05-19T04:53:57.854Z,15.14
2023-05-19T04:56:24.556Z,15.18
2023-05-19T04:58:51.170Z,15.21
2023-05-19T05:01:18.015Z,15.29
2023-05-19T05:03:44.858Z,15.22
2023-05-19T05:06:11.711Z,15.26
2023-05-19T05:08:38.535Z,15.30
2023-05-19T05:11:05.607Z,15.26
2023-05-19T05:13:32.597Z,15.34
2023-05-19T05:15:59.796Z,15.46
2023-05-19T05:18:26.947Z,15.54
2023-05-19T05:20:55.238Z,15.61
2023-05-19T05:23:22.318Z,15.71
2023-05-19T05:25:49.568Z,15.76
2023-05-19T05:28:16.487Z,15.88
2023-05-19T05:30:43.221Z,15.95
2023-05-19T05:33:10.296Z,16.01
2023-05-19T05:35:37.341Z,16.08
2023-05-19T05:38:04.783Z,16.10
2023-05-19T05:40:31.637Z,15.79
2023-05-19T05:42:58.536Z,15.92
2023-05-19T05:45:27.762Z,15.92
2023-05-19T05:47:54.859Z,15.97
2023-05-19T05:50:21.857Z,16.00
2023-05-19T05:52:50.362Z,16.17
2023-05-19T05:55:17.508Z,16.29
2023-05-19T05:57:44.363Z,16.28
2023-05-19T06:00:11.670Z,16.38
2023-05-19T06:02:38.809Z,16.47
2023-05-19T06:05:05.869Z,16.59
2023-05-19T06:07:32.753Z,16.74
2023-05-19T06:09:59.317Z,16.70
2023-05-19T06:12:25.925Z,16.89
2023-05-19T06:14:52.662Z,16.94
2023-05-19T06:17:19.472Z,17.07
2023-05-19T06:19:46.308Z,17.02
2023-05-19T06:22:13.118Z,17.03
2023-05-19T06:24:40.006Z,17.16
2023-05-19T06:27:06.942Z,17.07
2023-05-19T06:29:33.787Z,16.88
2023-05-19T06:32:00.683Z,16.64
2023-05-19T06:34:27.762Z,16.96
2023-05-19T06:36:54.743Z,17.01
2023-05-19T06:39:21.560Z,17.05
2023-05-19T06:41:48.317Z,16.93
2023-05-19T06:44:15.189Z,17.09
2023-05-19T06:46:42.187Z,17.03
2023-05-19T06:49:08.943Z,17.13
2023-05-19T06:51:35.789Z,17.21
2023-05-19T06:54:02.960Z,17.16
2023-05-19T06:56:29.995Z,17.02
2023-05-19T06:58:56.889Z,17.10
2023-05-19T07:01:23.883Z,17.22
2023-05-19T07:03:50.697Z,17.12
2023-05-19T07:06:17.530Z,17.00
2023-05-19T07:08:44.428Z,17.28
2023-05-19T07:11:11.841Z,17.32
2023-05-19T07:13:38.551Z,17.12
2023-05-19T07:16:05.409Z,17.32
2023-05-19T07:18:32.064Z,17.34
2023-05-19T07:20:58.685Z,17.37
2023-05-19T07:23:25.236Z,17.44
2023-05-19T07:25:55.759Z,17.56
2023-05-19T07:28:22.531Z,17.52
2023-05-19T07:30:49.206Z,17.42
2023-05-19T07:33:15.884Z,17.53
2023-05-19T07:35:42.701Z,17.19
2023-05-19T07:38:09.233Z,16.98
2023-05-19T07:40:35.897Z,17.15
2023-05-19T07:43:02.453Z,17.46
2023-05-19T07:45:29.162Z,17.64
2023-05-19T07:47:55.772Z,17.63
2023-05-19T07:50:22.350Z,17.68
2023-05-19T07:52:48.941Z,17.67
2023-05-19T07:55:16.505Z,17.82
2023-05-19T07:57:43.095Z,17.97
2023-05-19T08:00:10.174Z,18.08
2023-05-19T08:02:36.906Z,18.06
2023-05-19T08:05:03.652Z,18.15
2023-05-19T08:07:30.193Z,18.04
2023-05-19T08:09:56.925Z,18.12
2023-05-19T08:12:23.651Z,17.70
2023-05-19T08:14:50.285Z,17.41
2023-05-19T08:17:16.828Z,17.69
2023-05-19T08:19:43.358Z,17.73
2023-05-19T08:22:09.891Z,17.68
2023-05-19T08:24:36.571Z,17.77
2023-05-19T08:27:03.324Z,17.92
2023-05-19T08:29:30.017Z,18.08
2023-05-19T08:31:56.708Z,18.17
2023-05-19T08:34:23.290Z,17.98
2023-05-19T08:36:49.862Z,17.63
2023-05-19T08:39:16.682Z,17.80
2023-05-19T08:41:43.442Z,17.92
2023-05-19T08:44:10.170Z,18.05
2023-05-19T08:46:37.150Z,18.15
2023-05-19T08:49:11.663Z,18.35
2023-05-19T08:52:00.326Z,18.06
2023-05-19T08:54:37.466Z,18.16
2023-05-19T08:57:06.680Z,18.36
2023-05-19T08:59:34.536Z,18.48
2023-05-19T09:02:02.201Z,18.68
2023-05-19T09:04:30.338Z,18.58
2023-05-19T09:06:57.144Z,18.81
2023-05-19T09:09:23.809Z,18.93
2023-05-19T09:11:50.544Z,18.82
2023-05-19T09:14:17.118Z,18.88
2023-05-19T09:16:45.519Z,18.84
2023-05-19T09:19:14.159Z,18.96
2023-05-19T09:21:40.771Z,18.92
2023-05-19T09:24:09.502Z,18.92
2023-05-19T09:26:42.346Z,18.75
2023-05-19T09:29:18.571Z,18.78
2023-05-19T09:31:52.559Z,18.89
2023-05-19T09:34:20.416Z,18.89
2023-05-19T09:36:48.566Z,18.93
2023-05-19T09:39:22.708Z,18.97
2023-05-19T09:41:56.515Z,18.89
2023-05-19T09:44:27.849Z,18.99
2023-05-19T09:46:55.593Z,18.91
2023-05-19T09:49:24.658Z,19.12
2023-05-19T09:51:54.723Z,19.05
2023-05-19T09:54:22.926Z,18.86
2023-05-19T09:56:59.648Z,18.79
2023-05-19T09:59:29.022Z,18.88
2023-05-19T10:01:59.929Z,18.75
2023-05-19T10:04:28.532Z,19.09
2023-05-19T10:06:57.440Z,19.43
2023-05-19T10:09:26.279Z,19.35
2023-05-19T10:11:54.784Z,19.27
2023-05-19T10:14:27.887Z,19.40
2023-05-19T10:16:56.760Z,19.46
2023-05-19T10:19:30.084Z,19.64
2023-05-19T10:21:56.772Z,19.79
2023-05-19T10:24:23.314Z,19.71
2023-05-19T10:26:56.620Z,19.69
2023-05-19T10:29:28.972Z,19.42
2023-05-19T10:32:08.103Z,19.56
2023-05-19T10:35:08.588Z,19.79
2023-05-19T10:37:59.037Z,19.59
2023-05-19T10:40:33.347Z,19.44
2023-05-19T10:43:20.877Z,19.42
2023-05-19T10:45:58.344Z,19.27
2023-05-19T10:48:25.093Z,19.22
2023-05-19T10:50:56.455Z,19.13
2023-05-19T10:53:31.722Z,19.51
2023-05-19T10:56:00.932Z,19.45
2023-05-19T10:58:43.611Z,19.67
2023-05-19T11:01:15.672Z,19.57
2023-05-19T11:03:46.698Z,19.43
2023-05-19T11:06:25.481Z,19.56
2023-05-19T11:09:07.293Z,19.50
2023-05-19T11:11:46.189Z,19.65
2023-05-19T11:14:14.192Z,19.57
2023-05-19T11:16:41.172Z,19.76
2023-05-19T11:19:07.968Z,19.86
2023-05-19T11:21:51.762Z,19.79
2023-05-19T11:24:38.347Z,20.13
2023-05-19T11:27:28.030Z,20.20
2023-05-19T11:30:18.018Z,20.27
2023-05-19T11:32:48.046Z,20.23
2023-05-19T11:35:17.972Z,20.33
2023-05-19T11:37:45.469Z,20.25
2023-05-19T11:40:13.483Z,20.48
2023-05-19T11:42:40.110Z,20.59
2023-05-19T11:45:07.668Z,20.89
2023-05-19T11:47:46.516Z,21.07
2023-05-19T11:50:20.868Z,21.00
2023-05-19T11:52:48.136Z,20.83
2023-05-19T11:55:19.349Z,21.05
2023-05-19T11:58:12.172Z,21.04
2023-05-19T12:00:40.984Z,21.24
2023-05-19T12:03:08.525Z,21.03
2023-05-19T12:05:43.886Z,20.81
2023-05-19T12:08:11.644Z,21.08
2023-05-19T12:10:39.593Z,21.41
2023-05-19T12:13:06.668Z,21.50
2023-05-19T12:15:33.587Z,21.82
2023-05-19T12:18:01.752Z,22.08
2023-05-19T12:20:29.918Z,22.12
2023-05-19T12:22:57.092Z,22.06
2023-05-19T12:25:24.559Z,22.14
2023-05-19T12:27:51.191Z,22.07
2023-05-19T12:30:18.117Z,21.47
2023-05-19T12:32:46.295Z,21.37
2023-05-19T12:35:12.865Z,20.99
2023-05-19T12:37:41.927Z,20.33
2023-05-19T12:40:09.673Z,20.84
2023-05-19T12:42:36.266Z,20.96
2023-05-19T12:45:04.317Z,20.65
2023-05-19T12:47:35.841Z,20.89
2023-05-19T12:50:04.144Z,20.80
2023-05-19T12:52:33.522Z,21.13
2023-05-19T12:55:05.726Z,21.31
2023-05-19T12:57:36.598Z,21.67
2023-05-19T13:00:07.573Z,21.74
2023-05-19T13:02:35.936Z,21.48
2023-05-19T13:05:03.251Z,21.29
2023-05-19T13:07:29.933Z,21.30
2023-05-19T13:09:56.500Z,20.74
2023-05-19T13:12:23.118Z,21.14
2023-05-19T13:14:49.709Z,21.72
2023-05-19T13:17:16.256Z,21.89
2023-05-19T13:19:42.976Z,22.17
2023-05-19T13:22:09.515Z,22.50
2023-05-19T13:24:36.070Z,22.96
2023-05-19T13:27:02.646Z,23.42
2023-05-19T13:29:29.325Z,22.89
2023-05-19T13:31:55.873Z,22.76
2023-05-19T13:34:22.421Z,23.02
2023-05-19T13:36:49.065Z,22.84
2023-05-19T13:39:15.670Z,21.93
2023-05-19T13:41:42.171Z,21.52
2023-05-19T13:44:08.807Z,21.47
2023-05-19T13:46:44.747Z,21.50
2023-05-19T13:49:12.515Z,21.62
2023-05-19T13:51:42.367Z,21.89
2023-05-19T13:54:08.866Z,22.22
2023-05-19T13:56:35.885Z,22.77
2023-05-19T13:59:02.783Z,23.12
2023-05-19T14:01:29.707Z,23.41
2023-05-19T14:03:56.459Z,23.44
2023-05-19T14:06:23.109Z,23.33
2023-05-19T14:08:49.648Z,22.73
2023-05-19T14:11:20.284Z,22.52
2023-05-19T14:13:52.352Z,22.54
2023-05-19T14:16:19.497Z,22.22
2023-05-19T14:18:46.234Z,22.26
2023-05-19T14:21:12.908Z,22.38
2023-05-19T14:23:39.530Z,22.06
2023-05-19T14:26:06.349Z,21.97
2023-05-19T14:28:32.916Z,21.38
2023-05-19T14:30:59.525Z,21.58
2023-05-19T14:33:26.050Z,20.56
2023-05-19T14:35:53.019Z,20.49
2023-05-19T14:38:19.537Z,19.62
2023-05-19T14:40:46.198Z,20.14
2023-05-19T14:43:12.706Z,20.49
2023-05-19T14:45:39.426Z,20.99
2023-05-19T14:48:06.020Z,21.47
2023-05-19T14:50:32.943Z,20.85
2023-05-19T14:52:59.616Z,19.92
2023-05-19T14:55:26.178Z,20.45
2023-05-19T14:57:52.730Z,19.58
2023-05-19T15:00:19.495Z,19.86
2023-05-19T15:02:46.274Z,20.13
2023-05-19T15:05:12.837Z,19.94
2023-05-19T15:07:39.522Z,19.98
2023-05-19T15:10:07.590Z,20.17
2023-05-19T15:12:34.568Z,20.21
2023-05-19T15:15:01.144Z,20.12
2023-05-19T15:17:27.930Z,20.42
2023-05-19T15:19:54.627Z,20.61
2023-05-19T15:22:21.284Z,20.28
2023-05-19T15:24:48.044Z,20.12
2023-05-19T15:27:14.617Z,20.48
2023-05-19T15:29:41.279Z,20.11
2023-05-19T15:32:10.281Z,20.50
2023-05-19T15:34:36.828Z,20.81
2023-05-19T15:37:03.634Z,21.16
2023-05-19T15:39:30.689Z,20.91
2023-05-19T15:41:57.298Z,21.19
2023-05-19T15:44:23.852Z,21.07
2023-05-19T15:46:50.517Z,21.39
2023-05-19T15:49:17.201Z,21.13
2023-05-19T15:51:44.492Z,20.86
2023-05-19T15:54:11.265Z,20.66
2023-05-19T15:56:37.837Z,20.09
2023-05-19T15:59:04.332Z,19.95
2023-05-19T16:01:30.977Z,19.70
2023-05-19T16:03:57.679Z,19.32
2023-05-19T16:06:24.267Z,19.53
2023-05-19T16:08:50.796Z,19.36
2023-05-19T16:11:17.411Z,19.51
2023-05-19T16:13:43.948Z,19.55
2023-05-19T16:16:10.522Z,19.87
2023-05-19T16:18:37.153Z,19.70
2023-05-19T16:21:03.782Z,19.23
2023-05-19T16:23:31.457Z,18.98
2023-05-19T16:25:58.063Z,19.00
2023-05-19T16:28:25.124Z,18.85
2023-05-19T16:30:51.874Z,18.66
2023-05-19T16:33:19.075Z,18.99
2023-05-19T16:35:45.636Z,18.79
2023-05-19T16:38:12.238Z,19.13
2023-05-19T16:40:41.127Z,18.98
2023-05-19T16:43:07.665Z,18.70
2023-05-19T16:45:36.271Z,18.14
2023-05-19T16:48:02.949Z,18.39
2023-05-19T16:50:29.762Z,18.27
2023-05-19T16:52:56.371Z,18.28
2023-05-19T16:55:22.894Z,18.31
2023-05-19T16:57:49.491Z,18.16
2023-05-19T17:00:16.180Z,18.18
2023-05-19T17:02:42.946Z,17.74
2023-05-19T17:05:09.639Z,17.88
2023-05-19T17:07:36.274Z,17.74
2023-05-19T17:10:02.910Z,17.90
2023-05-19T17:12:29.471Z,18.08
2023-05-19T17:14:56.025Z,18.12
2023-05-19T17:17:22.724Z,18.44
2023-05-19T17:19:49.367Z,17.78
2023-05-19T17:22:15.914Z,17.63
2023-05-19T17:24:42.449Z,17.51
2023-05-19T17:27:08.992Z,16.93
2023-05-19T17:29:36.933Z,17.54
2023-05-19T17:32:03.780Z,17.78
2023-05-19T17:34:30.330Z,18.03
2023-05-19T17:36:56.833Z,17.54
2023-05-19T17:39:23.423Z,17.65
2023-05-19T17:41:49.966Z,17.66
2023-05-19T17:44:16.521Z,17.84
2023-05-19T17:46:43.058Z,17.76
2023-05-19T17:49:09.673Z,17.67
2023-05-19T17:51:36.669Z,17.70
2023-05-19T17:54:03.463Z,17.85
2023-05-19T17:56:33.715Z,17.63
2023-05-19T17:59:00.497Z,17.51
2023-05-19T18:01:27.282Z,17.46
2023-05-19T18:03:54.181Z,17.71
2023-05-19T18:06:21.085Z,17.62
2023-05-19T18:08:47.845Z,17.45
2023-05-19T18:11:14.545Z,17.64
2023-05-19T18:13:41.568Z,17.52
2023-05-19T18:16:08.931Z,17.46
2023-05-19T18:18:35.534Z,17.67
2023-05-19T18:21:02.071Z,17.07
2023-05-19T18:23:28.606Z,17.26
2023-05-19T18:25:55.137Z,17.51
2023-05-19T18:28:22.872Z,17.28
2023-05-19T18:31:04.392Z,17.24
2023-05-19T18:33:31.406Z,17.39
2023-05-19T18:35:59.269Z,17.30
2023-05-19T18:38:26.123Z,16.62
2023-05-19T18:40:52.991Z,16.36
2023-05-19T18:43:19.625Z,16.35
2023-05-19T18:45:49.164Z,16.47
2023-05-19T18:48:15.893Z,16.11
2023-05-19T18:50:42.605Z,16.35
2023-05-19T18:53:09.225Z,16.13
2023-05-19T18:55:38.280Z,16.12
2023-05-19T18:58:05.077Z,16.23
2023-05-19T19:00:31.811Z,15.93
2023-05-19T19:03:01.330Z,15.86
2023-05-19T19:05:28.821Z,15.75
2023-05-19T19:07:55.308Z,15.86
2023-05-19T19:10:21.903Z,15.96
2023-05-19T19:12:48.439Z,16.00
2023-05-19T19:15:14.997Z,15.98
2023-05-19T19:17:41.572Z,16.07
2023-05-19T19:20:08.903Z,16.10
2023-05-19T19:22:35.683Z,16.42
2023-05-19T19:25:02.201Z,16.57
2023-05-19T19:27:28.736Z,16.39
2023-05-19T19:29:55.277Z,16.93
2023-05-19T19:32:21.847Z,16.83
2023-05-19T19:34:48.418Z,17.28
2023-05-19T19:37:14.960Z,17.39
2023-05-19T19:39:41.503Z,17.16
2023-05-19T19:42:08.068Z,17.00
2023-05-19T19:44:34.713Z,17.04
2023-05-19T19:47:01.332Z,17.02
2023-05-19T19:49:27.906Z,17.20
2023-05-19T19:51:55.566Z,16.97
2023-05-19T19:54:22.134Z,17.18
2023-05-19T19:56:48.677Z,17.07
2023-05-19T19:59:15.169Z,17.32
2023-05-19T20:01:41.694Z,17.06
2023-05-19T20:04:08.430Z,17.30
2023-05-19T20:06:35.201Z,16.99
2023-05-19T20:09:01.767Z,16.88
2023-05-19T20:11:28.382Z,16.74
2023-05-19T20:13:54.939Z,16.85
2023-05-19T20:16:21.668Z,16.60
2023-05-19T20:18:48.326Z,16.52
2023-05-19T20:21:15.021Z,16.65
2023-05-19T20:23:41.677Z,16.81
2023-05-19T20:26:11.863Z,16.89
2023-05-19T20:28:39.467Z,17.21
2023-05-19T20:31:06.073Z,17.26
2023-05-19T20:33:32.754Z,17.09
2023-05-19T20:35:59.296Z,16.85
2023-05-19T20:38:26.150Z,16.99
2023-05-19T20:40:54.123Z,17.04
2023-05-19T20:43:20.691Z,17.11
2023-05-19T20:45:47.314Z,16.99
2023-05-19T20:48:13.887Z,17.20
2023-05-19T20:50:40.475Z,16.60
2023-05-19T20:53:07.079Z,16.88
2023-05-19T20:55:33.790Z,16.92
2023-05-19T20:58:00.552Z,16.90
2023-05-19T21:00:28.816Z,16.74
2023-05-19T21:02:57.056Z,16.86
2023-05-19T21:05:23.837Z,16.62
2023-05-19T21:07:50.391Z,16.50
2023-05-19T21:10:17.220Z,16.35
2023-05-19T21:12:43.827Z,16.40
2023-05-19T21:15:10.892Z,16.28
2023-05-19T21:17:37.570Z,16.50
2023-05-19T21:20:04.621Z,16.42
2023-05-19T21:22:31.835Z,16.42
2023-05-19T21:24:58.444Z,16.67
2023-05-19T21:27:25.137Z,16.28
2023-05-19T21:29:55.253Z,16.31
2023-05-19T21:32:22.236Z,16.29
2023-05-19T21:34:48.899Z,16.22
2023-05-19T21:37:15.472Z,15.98
2023-05-19T21:39:41.995Z,16.18
2023-05-19T21:42:08.529Z,16.16
2023-05-19T21:44:35.061Z,16.38
2023-05-19T21:47:01.609Z,16.19
2023-05-19T21:49:28.153Z,16.40
2023-05-19T21:51:54.703Z,16.32
2023-05-19T21:54:21.307Z,16.31
2023-05-19T21:56:47.792Z,16.43
2023-05-19T21:59:14.377Z,16.58
2023-05-19T22:01:40.991Z,16.45
2023-05-19T22:04:07.768Z,16.15
2023-05-19T22:06:34.542Z,15.99
2023-05-19T22:09:01.089Z,15.77
2023-05-19T22:11:27.810Z,15.62
2023-05-19T22:13:54.380Z,15.86
2023-05-19T22:16:20.986Z,15.79
2023-05-19T22:18:47.537Z,15.80
2023-05-19T22:21:14.105Z,15.71
2023-05-19T22:23:40.641Z,15.60
2023-05-19T22:26:07.190Z,15.48
2023-05-19T22:28:33.753Z,15.30
2023-05-19T22:31:00.281Z,15.21
2023-05-19T22:33:26.857Z,15.29
2023-05-19T22:35:53.696Z,15.61
2023-05-19T22:38:20.208Z,15.23
2023-05-19T22:40:46.845Z,15.35
2023-05-19T22:43:13.384Z,15.38
2023-05-19T22:45:39.984Z,15.55
2023-05-19T22:48:06.680Z,15.50
2023-05-19T22:50:33.428Z,15.34
2023-05-19T22:52:59.940Z,15.50
2023-05-19T22:55:26.499Z,15.68
2023-05-19T22:57:53.066Z,15.77
2023-05-19T23:00:19.833Z,15.87
2023-05-19T23:02:46.917Z,15.94
2023-05-19T23:05:13.501Z,16.16
2023-05-19T23:07:40.021Z,16.28
2023-05-19T23:10:06.859Z,15.84
2023-05-19T23:12:33.385Z,15.76
2023-05-19T23:14:59.894Z,15.94
2023-05-19T23:17:26.483Z,15.43
2023-05-19T23:19:53.100Z,15.56
2023-05-19T23:22:19.642Z,15.61
2023-05-19T23:24:46.324Z,15.57
2023-05-19T23:27:12.905Z,15.86
2023-05-19T23:29:39.432Z,15.65
2023-05-19T23:32:06.175Z,15.75
2023-05-19T23:34:32.741Z,15.79
2023-05-19T23:36:59.265Z,16.17
2023-05-19T23:39:25.852Z,16.09
2023-05-19T23:41:52.365Z,16.12
2023-05-19T23:44:18.906Z,16.05
2023-05-19T23:46:45.414Z,16.08
2023-05-19T23:49:11.935Z,15.73
2023-05-19T23:51:38.468Z,15.65
2023-05-19T23:54:05.071Z,15.83
2023-05-19T23:56:31.624Z,15.87
2023-05-19T23:58:58.181Z,15.74
